Edenton, NC (27932)

2:58 PM EDT on August 28, 2016 (GMT -0400)
Northwest Edenton | | Change Station

Elev 16 ft 36.07 °N, 76.61 °W | Updated 40 seconds ago

Scattered Clouds
Scattered Clouds
85.6 °F
Feels Like 94 °F
N
1.3
Wind Variable Wind from NNE
Gusts 2.5 mph

Today
High -- | Low -- °F
--% Chance of Precip.
Yesterday
High -- | Low -- °F
Precip. -- in
Pressure 30.14 in
Visibility 10.0 miles
Clouds Scattered Clouds 2700 ft
Scattered Clouds 12000 ft
Heat Index 94 °F
Dew Point 75 °F
Humidity 70%
Rainfall 0.00 in
Snow Depth Not available.
6:35 AM 7:39 PM
Waning Crescent, 14% visible
METAR KEDE 281840Z AUTO 07005KT 10SM SCT027 SCT120 30/23 A3014 RMK AO2 T02980229
Pressure 30.14 in
Visibility 10.0 miles
Clouds Scattered Clouds 2700 ft
Scattered Clouds 12000 ft
Heat Index 94 °F
Dew Point 75 °F
Humidity 70%
Rainfall 0.00 in
Snow Depth Not available.
6:35 AM 7:39 PM
Waning Crescent, 14% visible
METAR KEDE 281840Z AUTO 07005KT 10SM SCT027 SCT120 30/23 A3014 RMK AO2 T02980229

10-Day Weather Forecast

Almanac

Astronomy

Aug. 28, 2016 Rise Set
Actual Time
Civil Twilight
Nautical Twilight
Astronomical Twilight
Moon
Length of Visible Light
Length of Day
Tomorrow will be .
, % of the Moon is Illuminated

Today's Extremes

State Highs State Lows

Community

WunderPhotos

Upload Photos

1,935,647 photos uploaded!

WunderBlog® & News

Nearby

Air Quality

  Air Quality AQ Index Pollutant
Not available.

Snow Depth

Station Depth Elevation

Earthquake Activity

City Distance Mag. Time & Date
Minimum magnitude displayed is 2.5.

Coastal Water Temperatures

Place Temperature

Stations

Nearby Weather Stations

Station Location Temp. Windchill Dew Point Humidity Wind Precip. Elev Updated Type
                   

Watches & Warnings

There are currently no watches in effect.